createdAt,value
2022-11-29T00:00:13.773Z,9.309009
2022-11-29T00:01:13.657Z,9.308928
2022-11-29T00:02:13.731Z,9.308984
2022-11-29T00:03:46.917Z,9.308987
2022-11-29T00:04:14.600Z,9.309072
2022-11-29T00:05:13.615Z,9.308962
2022-11-29T00:06:13.616Z,9.308892
2022-11-29T00:07:13.681Z,9.308924
2022-11-29T00:08:13.622Z,9.308919
2022-11-29T00:09:13.673Z,9.308869
2022-11-29T00:10:13.658Z,9.308898
2022-11-29T00:11:13.677Z,9.308960
2022-11-29T00:12:13.657Z,9.308944
2022-11-29T00:13:13.648Z,9.308962
2022-11-29T00:14:13.606Z,9.308968
2022-11-29T00:15:13.577Z,9.308970
2022-11-29T00:16:13.681Z,9.309009
2022-11-29T00:17:13.681Z,9.308974
2022-11-29T00:18:13.620Z,9.308942
2022-11-29T00:19:13.646Z,9.308958
2022-11-29T00:20:14.587Z,9.308993
2022-11-29T00:21:13.535Z,9.309069
2022-11-29T00:22:13.527Z,9.309071
2022-11-29T00:23:13.542Z,9.309054
2022-11-29T00:24:13.441Z,9.309007
2022-11-29T00:25:13.495Z,9.308988
2022-11-29T00:26:13.443Z,9.309119
2022-11-29T00:27:13.465Z,9.309011
2022-11-29T00:28:13.441Z,9.308944
2022-11-29T00:29:13.504Z,9.308953
2022-11-29T00:30:13.563Z,9.309077
2022-11-29T00:31:13.623Z,9.309232
2022-11-29T00:32:13.488Z,9.309096
2022-11-29T00:33:13.592Z,9.309071
2022-11-29T00:34:13.460Z,9.309037
2022-11-29T00:35:13.531Z,9.309035
2022-11-29T00:36:13.463Z,9.309028
2022-11-29T00:37:13.517Z,9.308911
2022-11-29T00:38:13.477Z,9.309071
2022-11-29T00:39:13.725Z,9.309155
2022-11-29T00:40:13.520Z,9.309032
2022-11-29T00:41:13.456Z,9.309086
2022-11-29T00:42:13.323Z,9.309168
2022-11-29T00:43:13.494Z,9.309156
2022-11-29T00:44:19.706Z,9.309134
2022-11-29T00:45:15.415Z,9.309161
2022-11-29T00:46:13.390Z,9.309093
2022-11-29T00:47:13.516Z,9.309114
2022-11-29T00:48:13.503Z,9.309104
2022-11-29T00:49:13.523Z,9.309109
2022-11-29T00:50:13.445Z,9.309134
2022-11-29T00:51:13.510Z,9.309122
2022-11-29T00:52:13.441Z,9.309140
2022-11-29T00:53:13.520Z,9.309194
2022-11-29T00:54:23.005Z,9.309068
2022-11-29T00:55:13.487Z,9.309149
2022-11-29T00:56:13.349Z,9.309126
2022-11-29T00:57:13.493Z,9.309057
2022-11-29T00:58:13.346Z,9.309031
2022-11-29T00:59:14.110Z,9.309050
2022-11-29T01:00:13.245Z,9.309044
2022-11-29T01:01:13.224Z,9.309059
2022-11-29T01:02:13.221Z,9.309091
2022-11-29T01:03:13.216Z,9.309011
2022-11-29T01:04:13.237Z,9.309011
2022-11-29T01:05:13.185Z,9.309063
2022-11-29T01:06:13.263Z,9.308968
2022-11-29T01:07:13.165Z,9.309013
2022-11-29T01:08:13.193Z,9.309029
2022-11-29T01:09:13.133Z,9.309066
2022-11-29T01:10:13.232Z,9.309073
2022-11-29T01:11:13.326Z,9.309039
2022-11-29T01:12:13.219Z,9.309051
2022-11-29T01:13:13.260Z,9.309098
2022-11-29T01:14:13.196Z,9.309063
2022-11-29T01:15:13.187Z,9.309017
2022-11-29T01:16:13.195Z,9.308945
2022-11-29T01:17:13.293Z,9.308948
2022-11-29T01:18:13.198Z,9.308944
2022-11-29T01:19:13.254Z,9.308981
2022-11-29T01:20:13.184Z,9.309082
2022-11-29T01:21:13.185Z,9.309033
2022-11-29T01:22:13.181Z,9.308998
2022-11-29T01:23:13.207Z,9.308969
2022-11-29T01:24:13.056Z,9.308999
2022-11-29T01:25:13.068Z,9.308959
2022-11-29T01:26:13.117Z,9.308960
2022-11-29T01:27:13.201Z,9.309091
2022-11-29T01:28:13.146Z,9.309031
2022-11-29T01:29:13.162Z,9.308969
2022-11-29T01:30:13.103Z,9.308990
2022-11-29T01:31:13.208Z,9.308999
2022-11-29T01:32:13.182Z,9.309004
2022-11-29T01:33:13.091Z,9.308945
2022-11-29T01:34:13.100Z,9.309058
2022-11-29T01:35:13.115Z,9.309064
2022-11-29T01:36:13.189Z,9.308996
2022-11-29T01:37:13.134Z,9.309039
2022-11-29T01:38:13.154Z,9.308990
2022-11-29T01:39:13.063Z,9.309012
2022-11-29T01:40:12.999Z,9.309003
2022-11-29T01:41:12.963Z,9.309040
2022-11-29T01:42:12.958Z,9.309031
2022-11-29T01:43:13.004Z,9.308843
2022-11-29T01:44:13.170Z,9.308967
2022-11-29T01:45:12.895Z,9.309021
2022-11-29T01:46:13.014Z,9.309084
2022-11-29T01:47:12.949Z,9.308991
2022-11-29T01:48:12.941Z,9.309081
2022-11-29T01:49:13.014Z,9.309011
2022-11-29T01:50:12.969Z,9.308998
2022-11-29T01:51:12.962Z,9.309011
2022-11-29T01:52:12.995Z,9.309147
2022-11-29T01:53:12.930Z,9.309127
2022-11-29T01:54:13.994Z,9.309135
2022-11-29T01:55:12.952Z,9.309023
2022-11-29T01:56:12.939Z,9.308977
2022-11-29T01:57:12.822Z,9.309049
2022-11-29T01:58:13.836Z,9.309222
2022-11-29T01:59:12.835Z,9.309193
2022-11-29T02:00:12.870Z,9.309091
2022-11-29T02:01:12.859Z,9.309037
2022-11-29T02:02:12.877Z,9.309029
2022-11-29T02:03:12.789Z,9.309142
2022-11-29T02:04:12.838Z,9.309124
2022-11-29T02:05:12.793Z,9.309088
2022-11-29T02:06:12.861Z,9.309017
2022-11-29T02:07:12.848Z,9.309052
2022-11-29T02:08:12.829Z,9.309087
2022-11-29T02:09:12.908Z,9.309058
2022-11-29T02:10:12.839Z,9.309131
2022-11-29T02:11:12.861Z,9.309065
2022-11-29T02:12:12.867Z,9.309019
2022-11-29T02:13:12.922Z,9.308906
2022-11-29T02:14:12.790Z,9.309159
2022-11-29T02:15:12.955Z,9.309097
2022-11-29T02:16:12.819Z,9.309116
2022-11-29T02:17:12.700Z,9.309051
2022-11-29T02:18:12.691Z,9.309147
2022-11-29T02:19:12.928Z,9.309127
2022-11-29T02:20:12.664Z,9.308986
2022-11-29T02:21:12.709Z,9.308872
2022-11-29T02:22:12.666Z,9.309007
2022-11-29T02:23:12.684Z,9.309076
2022-11-29T02:24:12.658Z,9.308954
2022-11-29T02:25:12.719Z,9.308807
2022-11-29T02:26:12.745Z,9.308980
2022-11-29T02:27:12.746Z,9.308981
2022-11-29T02:28:12.701Z,9.309055
2022-11-29T02:29:12.684Z,9.309039
2022-11-29T02:30:12.809Z,9.309064
2022-11-29T02:31:12.822Z,9.308934
2022-11-29T02:32:12.703Z,9.309028
2022-11-29T02:33:12.803Z,9.308953
2022-11-29T02:34:12.759Z,9.308984
2022-11-29T02:35:12.762Z,9.309025
2022-11-29T02:36:12.637Z,9.309009
2022-11-29T02:37:12.645Z,9.309081
2022-11-29T02:38:12.584Z,9.309038
2022-11-29T02:39:12.583Z,9.309125
2022-11-29T02:40:12.729Z,9.309092
2022-11-29T02:41:12.592Z,9.308985
2022-11-29T02:42:12.771Z,9.309082
2022-11-29T02:43:12.726Z,9.309085
2022-11-29T02:44:12.635Z,9.309085
2022-11-29T02:45:12.700Z,9.309049
2022-11-29T02:46:12.967Z,9.309060
2022-11-29T02:47:12.765Z,9.309051
2022-11-29T02:48:12.817Z,9.309028
2022-11-29T02:49:12.645Z,9.309080
2022-11-29T02:50:12.725Z,9.308998
2022-11-29T02:51:47.084Z,9.309041
2022-11-29T02:52:12.631Z,9.309081
2022-11-29T02:53:12.644Z,9.309085
2022-11-29T02:54:12.657Z,9.309110
2022-11-29T02:55:12.566Z,9.309127
2022-11-29T02:56:12.558Z,9.309151
2022-11-29T02:57:12.656Z,9.309130
2022-11-29T02:58:12.633Z,9.309103
2022-11-29T02:59:12.471Z,9.309167
2022-11-29T03:00:13.582Z,9.309162
2022-11-29T03:01:12.534Z,9.309118
2022-11-29T03:02:12.662Z,9.309051
2022-11-29T03:03:12.502Z,9.309044
2022-11-29T03:07:12.323Z,9.309096
2022-11-29T03:08:12.261Z,9.309096
2022-11-29T03:09:45.463Z,9.309095
2022-11-29T03:10:13.040Z,9.309154
2022-11-29T03:21:47.221Z,9.309003
2022-11-29T03:22:47.102Z,9.309120
2022-11-29T03:23:47.113Z,9.309106
2022-11-29T03:24:47.267Z,9.309165
2022-11-29T03:25:47.010Z,9.309040
2022-11-29T03:26:47.075Z,9.309068
2022-11-29T03:27:47.036Z,9.309100
2022-11-29T03:28:47.029Z,9.309025
2022-11-29T03:29:46.939Z,9.309134
2022-11-29T03:30:47.624Z,9.309208
2022-11-29T03:31:47.084Z,9.309099
2022-11-29T03:32:47.220Z,9.309093
2022-11-29T03:33:48.041Z,9.309086
2022-11-29T03:34:47.366Z,9.308928
2022-11-29T03:35:47.200Z,9.309073
2022-11-29T03:36:47.114Z,9.309116
2022-11-29T03:37:47.068Z,9.309057
2022-11-29T03:38:46.991Z,9.309083
2022-11-29T03:39:46.975Z,9.309011
2022-11-29T03:40:47.324Z,9.308990
2022-11-29T03:41:46.967Z,9.308910
2022-11-29T03:42:46.938Z,9.308866
2022-11-29T03:43:47.049Z,9.308889
2022-11-29T03:44:47.035Z,9.309065
2022-11-29T03:45:46.934Z,9.308956
2022-11-29T03:46:46.908Z,9.309017
2022-11-29T03:47:47.066Z,9.308984
2022-11-29T03:49:21.362Z,9.309085
2022-11-29T03:49:46.931Z,9.309227
2022-11-29T03:50:48.433Z,9.309111
2022-11-29T03:51:46.984Z,9.309036
2022-11-29T03:52:47.143Z,9.309050
2022-11-29T03:53:46.901Z,9.309047
2022-11-29T03:54:47.114Z,9.309131
2022-11-29T03:55:46.937Z,9.309093
2022-11-29T03:56:46.925Z,9.309163
2022-11-29T03:57:46.757Z,9.309161
2022-11-29T03:58:46.814Z,9.309084
2022-11-29T03:59:46.737Z,9.308959
2022-11-29T04:00:47.006Z,9.309028
2022-11-29T04:01:46.909Z,9.308999
2022-11-29T04:02:46.846Z,9.309058
2022-11-29T04:03:46.791Z,9.309094
2022-11-29T04:04:47.128Z,9.309068
2022-11-29T04:05:46.849Z,9.308978
2022-11-29T04:06:46.839Z,9.308950
2022-11-29T04:07:46.846Z,9.309019
2022-11-29T04:08:46.971Z,9.308994
2022-11-29T04:09:46.972Z,9.309007
2022-11-29T04:10:46.743Z,9.309107
2022-11-29T04:11:46.822Z,9.308980
2022-11-29T04:12:46.744Z,9.309034
2022-11-29T04:13:46.659Z,9.309074
2022-11-29T04:14:47.086Z,9.309052
2022-11-29T04:15:46.791Z,9.309060
2022-11-29T04:16:46.708Z,9.309028
2022-11-29T04:17:46.653Z,9.308973
2022-11-29T04:18:46.762Z,9.308867
2022-11-29T04:19:46.877Z,9.308973
2022-11-29T04:20:48.405Z,9.309114
2022-11-29T04:21:47.762Z,9.309060
2022-11-29T04:22:46.646Z,9.308961
2022-11-29T04:23:46.678Z,9.309007
2022-11-29T04:24:46.891Z,9.308981
2022-11-29T04:25:46.846Z,9.308969
2022-11-29T04:26:46.738Z,9.309032
2022-11-29T04:27:46.744Z,9.308945
2022-11-29T04:28:46.897Z,9.308982
2022-11-29T04:29:46.650Z,9.308994
2022-11-29T04:30:46.639Z,9.308969
2022-11-29T04:31:46.621Z,9.308933
2022-11-29T04:32:46.673Z,9.309093
2022-11-29T04:33:46.604Z,9.309057
2022-11-29T04:34:46.868Z,9.309055
2022-11-29T04:35:46.585Z,9.309056
2022-11-29T04:36:47.609Z,9.309064
2022-11-29T04:37:46.592Z,9.309031
2022-11-29T04:38:46.598Z,9.308983
2022-11-29T04:39:46.603Z,9.309067
2022-11-29T04:40:46.518Z,9.309079
2022-11-29T04:41:46.620Z,9.309070
2022-11-29T04:42:46.607Z,9.309094
2022-11-29T04:43:46.625Z,9.309145
2022-11-29T04:44:46.841Z,9.309061
2022-11-29T04:45:46.632Z,9.308998
2022-11-29T04:46:46.498Z,9.309003
2022-11-29T04:47:46.512Z,9.308991
2022-11-29T04:48:46.514Z,9.309027
2022-11-29T04:49:46.613Z,9.309009
2022-11-29T04:50:46.538Z,9.309029
2022-11-29T04:51:46.435Z,9.309095
2022-11-29T04:52:46.524Z,9.309055
2022-11-29T04:53:46.558Z,9.309035
2022-11-29T04:54:46.593Z,9.309010
2022-11-29T04:55:46.407Z,9.309052
2022-11-29T04:56:46.367Z,9.309050
2022-11-29T04:57:46.405Z,9.309037
2022-11-29T04:58:46.422Z,9.309049
2022-11-29T04:59:46.451Z,9.309044
2022-11-29T05:00:46.343Z,9.309044
2022-11-29T05:01:46.588Z,9.309055
2022-11-29T05:02:46.548Z,9.309054
2022-11-29T05:03:47.016Z,9.309165
2022-11-29T05:04:47.468Z,9.309155
2022-11-29T05:05:46.368Z,9.309131
2022-11-29T05:06:46.455Z,9.309101
2022-11-29T05:07:46.504Z,9.309032
2022-11-29T05:08:46.452Z,9.309001
2022-11-29T05:09:46.413Z,9.309023
2022-11-29T05:10:46.379Z,9.308986
2022-11-29T05:11:46.263Z,9.309013
2022-11-29T05:12:46.264Z,9.309040
2022-11-29T05:13:46.335Z,9.309028
2022-11-29T05:14:46.585Z,9.309032
2022-11-29T05:15:46.364Z,9.309065
2022-11-29T05:17:18.222Z,9.309130
2022-11-29T05:17:46.330Z,9.309059
2022-11-29T05:18:46.333Z,9.309273
2022-11-29T05:19:46.312Z,9.309093
2022-11-29T05:20:46.301Z,9.309042
2022-11-29T05:21:46.329Z,9.309004
2022-11-29T05:22:46.250Z,9.308968
2022-11-29T05:23:46.325Z,9.309007
2022-11-29T05:24:46.584Z,9.308928
2022-11-29T05:25:46.314Z,9.308938
2022-11-29T05:26:46.215Z,9.309042
2022-11-29T05:27:46.327Z,9.308985
2022-11-29T05:28:46.209Z,9.308965
2022-11-29T05:29:46.263Z,9.308998
2022-11-29T05:30:46.338Z,9.309063
2022-11-29T05:31:46.366Z,9.309093
2022-11-29T05:32:46.221Z,9.309052
2022-11-29T05:33:46.296Z,9.309132
2022-11-29T05:34:46.483Z,9.309198
2022-11-29T05:35:46.173Z,9.309170
2022-11-29T05:36:46.285Z,9.309146
2022-11-29T05:37:46.371Z,9.309175
2022-11-29T05:38:46.102Z,9.309208
2022-11-29T05:39:46.190Z,9.309150
2022-11-29T05:40:46.227Z,9.309143
2022-11-29T05:41:48.600Z,9.309127
2022-11-29T05:42:46.083Z,9.309068
2022-11-29T05:43:46.126Z,9.309079
2022-11-29T05:44:46.489Z,9.309172
2022-11-29T05:45:47.162Z,9.309190
2022-11-29T05:46:46.187Z,9.309145
2022-11-29T05:47:54.918Z,9.309055
2022-11-29T05:48:47.098Z,9.308909
2022-11-29T05:49:46.114Z,9.308929
2022-11-29T05:50:46.184Z,9.309036
2022-11-29T05:51:46.055Z,9.309046
2022-11-29T05:52:46.182Z,9.309057
2022-11-29T05:53:46.585Z,9.309043
2022-11-29T05:54:46.416Z,9.309019
2022-11-29T05:55:46.091Z,9.309109
2022-11-29T05:56:46.161Z,9.309065
2022-11-29T05:57:46.105Z,9.308874
2022-11-29T05:58:46.170Z,9.308887
2022-11-29T05:59:46.008Z,9.309092
2022-11-29T06:00:45.987Z,9.309298
2022-11-29T06:01:45.963Z,9.309339
2022-11-29T06:02:46.101Z,9.309468
2022-11-29T06:03:46.016Z,9.309334
2022-11-29T06:04:46.409Z,9.309161
2022-11-29T06:05:45.973Z,9.309074
2022-11-29T06:06:46.139Z,9.309053
2022-11-29T06:07:46.561Z,9.309071
2022-11-29T06:08:45.983Z,9.309108
2022-11-29T06:09:46.033Z,9.309009
2022-11-29T06:10:45.993Z,9.309025
2022-11-29T06:11:45.984Z,9.309011
2022-11-29T06:12:45.981Z,9.309070
2022-11-29T06:13:47.130Z,9.309073
2022-11-29T06:14:46.270Z,9.308962
2022-11-29T06:15:47.293Z,9.308992
2022-11-29T06:16:46.039Z,9.309010
2022-11-29T06:17:45.941Z,9.308960
2022-11-29T06:18:46.907Z,9.308868
2022-11-29T06:19:45.813Z,9.308972
2022-11-29T06:20:45.749Z,9.309140
2022-11-29T06:21:45.786Z,9.309122
2022-11-29T06:22:45.822Z,9.309200
2022-11-29T06:23:45.856Z,9.309258
2022-11-29T06:24:46.139Z,9.309193
2022-11-29T06:25:45.751Z,9.309205
2022-11-29T06:26:45.759Z,9.309062
2022-11-29T06:27:46.890Z,9.309175
2022-11-29T06:28:45.738Z,9.309134
2022-11-29T06:29:45.888Z,9.309082
2022-11-29T06:30:45.882Z,9.309057
2022-11-29T06:31:45.971Z,9.309140
2022-11-29T06:32:45.808Z,9.309088
2022-11-29T06:33:45.879Z,9.309024
2022-11-29T06:34:45.992Z,9.309024
2022-11-29T06:35:45.763Z,9.308960
2022-11-29T06:37:19.152Z,9.309036
2022-11-29T06:37:45.689Z,9.309060
2022-11-29T06:38:45.844Z,9.309017
2022-11-29T06:39:45.775Z,9.309018
2022-11-29T06:40:45.817Z,9.309038
2022-11-29T06:41:45.925Z,9.309092
2022-11-29T06:42:45.722Z,9.309053
2022-11-29T06:43:45.778Z,9.309037
2022-11-29T06:44:45.902Z,9.308988
2022-11-29T06:45:45.583Z,9.309027
2022-11-29T06:46:45.722Z,9.309030
2022-11-29T06:47:45.627Z,9.308971
2022-11-29T06:48:45.673Z,9.308967
2022-11-29T06:49:45.704Z,9.308954
2022-11-29T06:50:45.610Z,9.309021
2022-11-29T06:51:45.589Z,9.309077
2022-11-29T06:52:45.542Z,9.309022
2022-11-29T06:53:45.666Z,9.308977
2022-11-29T06:54:45.910Z,9.309044
2022-11-29T06:55:45.601Z,9.309043
2022-11-29T06:56:45.668Z,9.309086
2022-11-29T06:57:45.641Z,9.309011
2022-11-29T06:58:45.814Z,9.308972
2022-11-29T06:59:45.707Z,9.309049
2022-11-29T07:00:45.709Z,9.308958
2022-11-29T07:01:45.788Z,9.309025
2022-11-29T07:02:45.652Z,9.308991
2022-11-29T07:03:45.492Z,9.308970
2022-11-29T07:04:46.276Z,9.309042
2022-11-29T07:05:46.595Z,9.309175
2022-11-29T07:06:45.664Z,9.309033
2022-11-29T07:07:45.673Z,9.309050
2022-11-29T07:08:45.688Z,9.309081
2022-11-29T07:09:45.577Z,9.308988
2022-11-29T07:10:45.522Z,9.309059
2022-11-29T07:11:45.509Z,9.309118
2022-11-29T07:12:45.512Z,9.309112
2022-11-29T07:13:45.603Z,9.309159
2022-11-29T07:14:45.953Z,9.309113
2022-11-29T07:15:45.529Z,9.309135
2022-11-29T07:16:45.666Z,9.309098
2022-11-29T07:17:45.594Z,9.309055
2022-11-29T07:18:45.755Z,9.309087
2022-11-29T07:19:45.525Z,9.309110
2022-11-29T07:20:45.505Z,9.309075
2022-11-29T07:21:45.474Z,9.309080
2022-11-29T07:22:45.540Z,9.309019
2022-11-29T07:23:45.418Z,9.309054
2022-11-29T07:24:45.815Z,9.309068
2022-11-29T07:25:45.515Z,9.309070
2022-11-29T07:26:45.442Z,9.309076
2022-11-29T07:27:45.368Z,9.309047
2022-11-29T07:28:45.348Z,9.309093
2022-11-29T07:29:46.383Z,9.309101
2022-11-29T07:30:45.411Z,9.309116
2022-11-29T07:31:45.563Z,9.309114
2022-11-29T07:32:50.188Z,9.309069
2022-11-29T07:33:47.474Z,9.309184
2022-11-29T07:34:45.670Z,9.309157
2022-11-29T07:35:45.409Z,9.309149
2022-11-29T07:36:45.399Z,9.309067
2022-11-29T07:37:45.392Z,9.309121
2022-11-29T07:38:45.379Z,9.309081
2022-11-29T07:39:45.409Z,9.309093
2022-11-29T07:40:45.341Z,9.309105
2022-11-29T07:41:45.310Z,9.308938
2022-11-29T07:42:45.430Z,9.308859
2022-11-29T07:43:45.225Z,9.308929
2022-11-29T07:44:45.708Z,9.309059
2022-11-29T07:45:45.335Z,9.309045
2022-11-29T07:46:45.336Z,9.309051
2022-11-29T07:47:45.369Z,9.309114
2022-11-29T07:48:45.351Z,9.309072
2022-11-29T07:49:45.322Z,9.309074
2022-11-29T07:50:45.362Z,9.309081
2022-11-29T07:51:45.267Z,9.309041
2022-11-29T07:52:46.726Z,9.308990
2022-11-29T07:53:45.445Z,9.309028
2022-11-29T07:55:19.122Z,9.308966
2022-11-29T07:55:45.164Z,9.308983
2022-11-29T07:56:45.318Z,9.309010
2022-11-29T07:57:45.214Z,9.309033
2022-11-29T07:58:46.335Z,9.309046
2022-11-29T07:59:45.456Z,9.309027
2022-11-29T08:00:45.300Z,9.309005
2022-11-29T08:01:45.163Z,9.309037
2022-11-29T08:02:45.186Z,9.309016
2022-11-29T08:03:45.500Z,9.308969
2022-11-29T08:04:45.477Z,9.308989
2022-11-29T08:05:45.199Z,9.308954
2022-11-29T08:06:45.115Z,9.309003
